Skip Navigation LinksHome page > Weather > Current weather Skip Navigation Links

Current Weather

Kansas City Intl, Kansas City, Mo.

For information only: do not use for flight planning or navigation.
Latest weather
Observation time Monday, November 29, 2021 1:53 PM CST
Local time Monday, November 29, 2021 2:04 PM CST
Flight conditions Visual Meteorological Conditions
Winds
Wind direction West-Southwest (240°)
Wind speed 12 mph
Visibility 10 mi.
Sky condition
Ceiling 25,000 ft. broken clouds
Cloud layer broken clouds 25,000 ft.
Temperature 62°F
Dewpoint 35°F
Altimeter 29.88 in.Hg
Derived measurements
Relative humidity 36%
Density altitude 1379 ft.
Sea-level pressure 29.87 in.Hg
Remarks
Automated weather observing station with precipitation discriminator.
METAR KMCI 291953Z 24010KT 10SM BKN250 17/02 A2988 RMK AO2 SLP116 T01670017

Settings

Location code

InnerDrive.Weather 4.0.6770.0 Release CLR 4.0.30319.42000
Copyright ©2018 Inner Drive Technology. All rights reserved. Portions Copyright ©1986-2018 David Braverman.

Find weather

Site navigation


Skip Navigation Links

Place info

Page info

PayPal - The safer, easier way to pay online!

Return home.

Copyright ©2021 Inner Drive Technology. Purveyors of fine, hand-crafted computer software. Page printed 2021-11-29T20:04:30 UTC.